Time;durP1;ratioP1;P1;durP2;ratioP2;P2;SDS_P1;SDS_P2;PMS_P1;PMS_P2;Temp;Humidity;BMP_temperature;BMP_pressure;BME280_temperature;BME280_humidity;BME280_pressure;Samples;Min_cycle;Max_cycle;Signal;HPM_P1;HPM_P2
2022/05/25 00:00:07;;;;;;;6.72;2.55;;;;;;;24.94;50.07;96353.38;5138415;27;20023;-25
2022/05/25 00:02:32;;;;;;;4.85;2.83;;;;;;;24.89;50.19;96364.50;5138207;27;20113;-25
2022/05/25 00:04:58;;;;;;;5.15;2.65;;;;;;;24.88;50.37;96354.66;5119857;27;20559;-25
2022/05/25 00:07:24;;;;;;;4.68;2.50;;;;;;;24.90;49.97;96352.13;5138121;27;20030;-26
2022/05/25 00:09:49;;;;;;;6.13;2.90;;;;;;;24.90;50.18;96360.44;5138039;27;20080;-25
2022/05/25 00:12:16;;;;;;;3.78;2.25;;;;;;;24.87;50.16;96353.16;5138341;27;20031;-26
2022/05/25 00:14:42;;;;;;;5.55;2.80;;;;;;;24.88;49.89;96358.19;5138241;27;20026;-26
2022/05/25 00:17:08;;;;;;;3.97;2.50;;;;;;;24.89;50.12;96356.94;5137867;27;20027;-26
2022/05/25 00:22:43;;;;;;;2.78;2.20;;;;;;;24.89;49.96;96353.41;5138083;27;20045;-26
2022/05/25 00:28:30;;;;;;;4.82;2.65;;;;;;;24.82;49.89;96354.00;5137278;27;20528;-25
2022/05/25 00:30:55;;;;;;;5.38;2.60;;;;;;;24.76;50.11;96359.59;5137568;27;20027;-26
2022/05/25 00:33:21;;;;;;;5.13;3.00;;;;;;;24.88;49.43;96365.78;5137632;27;20497;-25
2022/05/25 00:35:47;;;;;;;6.22;2.45;;;;;;;24.86;49.45;96365.53;5137437;27;20050;-25
2022/05/25 00:38:12;;;;;;;4.68;2.60;;;;;;;24.89;49.29;96370.78;5137407;27;20076;-26
2022/05/25 00:40:41;;;;;;;6.53;2.95;;;;;;;24.92;49.32;96357.91;5137649;27;20019;-25
2022/05/25 00:43:08;;;;;;;3.38;2.20;;;;;;;24.85;49.44;96366.84;5137311;27;20023;-26
2022/05/25 00:46:20;;;;;;;4.43;2.63;;;;;;;24.84;49.28;96363.31;5137123;27;20030;-25
2022/05/25 00:52:11;;;;;;;3.83;2.15;;;;;;;24.78;49.47;96345.22;5136384;27;20118;-25
2022/05/25 00:54:50;;;;;;;4.20;2.78;;;;;;;24.83;49.26;96350.72;5137412;27;20026;-25
2022/05/25 00:57:22;;;;;;;5.25;2.80;;;;;;;24.78;49.57;96348.00;5137016;27;20077;-26
2022/05/25 01:00:22;;;;;;;5.03;2.58;;;;;;;24.81;49.31;96363.59;5137147;27;20152;-25
2022/05/25 01:02:57;;;;;;;4.10;2.70;;;;;;;24.90;48.74;96366.00;5118193;27;20035;-34
2022/05/25 01:05:30;;;;;;;3.88;2.83;;;;;;;24.83;49.00;96374.94;5137173;27;20019;-33
2022/05/25 01:08:22;;;;;;;6.97;3.10;;;;;;;24.78;49.10;96365.38;5137281;27;20390;-34
2022/05/25 01:11:32;;;;;;;4.38;2.70;;;;;;;24.81;49.25;96364.34;5136473;27;20023;-34
2022/05/25 01:14:26;;;;;;;6.13;2.88;;;;;;;24.84;48.81;96368.84;5053270;28;20036;-34
2022/05/25 01:17:20;;;;;;;4.57;2.80;;;;;;;24.81;48.68;96375.44;5053592;28;20029;-34
2022/05/25 01:19:52;;;;;;;4.22;3.08;;;;;;;24.83;48.68;96372.16;5053703;28;20472;-34
2022/05/25 01:22:26;;;;;;;6.97;3.05;;;;;;;24.84;48.53;96363.31;5053422;28;20028;-34
2022/05/25 01:25:13;;;;;;;4.32;2.80;;;;;;;24.83;48.47;96367.34;5053309;28;20040;-34
2022/05/25 01:27:45;;;;;;;4.68;2.80;;;;;;;24.80;48.83;96365.63;5053728;28;20025;-33
2022/05/25 01:30:17;;;;;;;5.13;2.90;;;;;;;24.78;48.56;96372.97;5053809;28;20105;-34
2022/05/25 01:33:04;;;;;;;4.55;3.15;;;;;;;24.81;48.70;96371.91;5053341;28;20061;-34
2022/05/25 01:35:44;;;;;;;5.15;2.97;;;;;;;24.85;48.49;96364.06;5053371;28;20044;-33
2022/05/25 01:38:31;;;;;;;3.53;2.50;;;;;;;24.79;48.56;96358.56;5053140;28;20082;-34
2022/05/25 01:41:13;;;;;;;5.70;3.28;;;;;;;24.69;48.78;96358.19;5053457;28;20035;-34
2022/05/25 01:43:57;;;;;;;3.83;2.88;;;;;;;24.78;48.21;96345.22;5057925;27;20029;-33
2022/05/25 01:46:31;;;;;;;9.13;2.80;;;;;;;24.77;48.47;96338.16;5136505;27;20094;-33
2022/05/25 01:49:01;;;;;;;6.32;2.95;;;;;;;24.78;48.42;96340.44;5136269;27;20458;-34
2022/05/25 01:51:35;;;;;;;5.70;2.60;;;;;;;24.70;48.50;96331.97;5136150;27;20091;-34
2022/05/25 01:54:04;;;;;;;4.78;2.72;;;;;;;24.75;48.26;96338.69;5136137;27;20059;-34
2022/05/25 01:56:32;;;;;;;4.80;2.92;;;;;;;24.78;48.10;96331.34;5135697;27;20099;-34
2022/05/25 01:59:03;;;;;;;5.45;2.80;;;;;;;24.73;48.46;96329.41;5117611;27;20445;-34
2022/05/25 02:01:28;;;;;;;3.85;2.55;;;;;;;24.77;48.34;96324.31;5135621;27;20038;-34
2022/05/25 02:06:47;;;;;;;5.55;2.60;;;;;;;24.74;48.11;96330.88;5135818;27;20072;-34
2022/05/25 02:09:46;;;;;;;4.40;2.50;;;;;;;24.76;48.13;96318.00;5136025;27;20015;-34
2022/05/25 02:12:36;;;;;;;3.65;2.50;;;;;;;24.75;47.96;96333.16;5136090;27;20023;-34
2022/05/25 02:15:13;;;;;;;5.20;3.15;;;;;;;24.67;48.36;96333.00;5135756;27;20168;-34
2022/05/25 02:18:01;;;;;;;4.72;2.40;;;;;;;24.62;48.37;96336.56;5135985;27;20050;-34
2022/05/25 02:20:37;;;;;;;4.72;2.70;;;;;;;24.73;48.28;96344.00;5135444;27;20111;-34
2022/05/25 02:23:25;;;;;;;4.05;2.47;;;;;;;24.67;48.36;96341.31;5135498;27;20031;-34
2022/05/25 02:26:04;;;;;;;4.95;2.70;;;;;;;24.66;48.35;96353.69;5135418;27;20038;-34
2022/05/25 02:28:37;;;;;;;3.00;2.30;;;;;;;24.67;48.49;96359.97;5135199;27;20019;-34
2022/05/25 02:31:06;;;;;;;3.45;2.42;;;;;;;24.73;48.19;96362.69;5135347;27;20027;-34
2022/05/25 02:33:39;;;;;;;4.25;2.47;;;;;;;24.69;48.33;96368.53;5135188;27;20470;-33
2022/05/25 02:36:08;;;;;;;6.00;2.97;;;;;;;24.72;48.22;96356.41;5135408;27;20030;-33
2022/05/25 02:38:37;;;;;;;5.82;2.45;;;;;;;24.67;48.26;96354.44;5135271;27;20016;-34
2022/05/25 02:41:06;;;;;;;4.00;2.47;;;;;;;24.65;48.35;96362.50;5135284;27;20026;-34
2022/05/25 02:43:33;;;;;;;4.93;2.45;;;;;;;24.69;48.13;96363.72;5135224;27;20411;-33
2022/05/25 02:46:04;;;;;;;5.32;2.90;;;;;;;24.65;48.50;96368.81;5135237;27;20027;-34
2022/05/25 02:48:30;;;;;;;5.10;2.50;;;;;;;24.61;48.54;96357.25;5135137;27;20160;-34
2022/05/25 02:54:22;;;;;;;4.22;2.58;;;;;;;24.61;48.39;96357.25;5134506;27;20243;-34
2022/05/25 02:56:48;;;;;;;3.10;2.70;;;;;;;24.64;48.12;96361.75;5134715;27;20552;-34
2022/05/25 02:59:13;;;;;;;3.65;2.50;;;;;;;24.61;48.32;96362.06;5134775;27;20028;-34
2022/05/25 03:01:39;;;;;;;4.95;2.30;;;;;;;24.63;48.04;96359.50;5135088;27;20025;-34
2022/05/25 03:04:04;;;;;;;5.13;2.78;;;;;;;24.71;48.17;96360.44;5135075;27;20030;-34
2022/05/25 03:06:31;;;;;;;3.35;2.30;;;;;;;24.63;48.13;96354.72;5134909;27;20023;-34
2022/05/25 03:08:56;;;;;;;7.63;2.67;;;;;;;24.63;48.21;96351.19;5134768;27;20473;-34
2022/05/25 03:11:22;;;;;;;4.03;2.45;;;;;;;24.60;47.91;96355.03;5134659;27;20027;-34
2022/05/25 03:13:48;;;;;;;5.20;2.30;;;;;;;24.51;48.47;96349.81;5133762;27;20088;-34
2022/05/25 03:16:15;;;;;;;4.18;2.45;;;;;;;24.53;48.38;96352.81;5134597;27;20389;-34
2022/05/25 03:18:43;;;;;;;3.10;2.35;;;;;;;24.55;48.24;96355.84;5115985;27;20032;-34
2022/05/25 03:21:08;;;;;;;4.40;3.10;;;;;;;24.53;48.21;96356.34;5134979;27;20023;-34
2022/05/25 03:23:35;;;;;;;4.07;2.75;;;;;;;24.56;48.08;96360.84;5134418;27;20383;-34
2022/05/25 03:26:00;;;;;;;5.32;2.70;;;;;;;24.57;48.01;96367.91;5134705;27;20104;-34
2022/05/25 03:28:26;;;;;;;4.65;2.65;;;;;;;24.57;47.70;96367.16;5134699;27;20359;-34
2022/05/25 03:30:51;;;;;;;3.15;2.38;;;;;;;24.56;47.95;96363.63;5134360;27;20019;-33
2022/05/25 03:33:17;;;;;;;5.95;2.58;;;;;;;24.48;47.97;96365.47;5134445;28;20065;-33
2022/05/25 03:35:43;;;;;;;3.50;2.60;;;;;;;24.53;47.92;96372.22;5134513;28;20389;-34
2022/05/25 03:38:08;;;;;;;5.32;2.85;;;;;;;24.50;48.05;96385.09;5134180;28;20015;-34
2022/05/25 03:40:35;;;;;;;3.88;2.65;;;;;;;24.52;47.85;96385.34;5133745;28;20080;-33
2022/05/25 03:43:00;;;;;;;3.67;2.38;;;;;;;24.45;47.86;96387.94;5134397;28;20037;-34
2022/05/25 03:45:26;;;;;;;4.32;2.70;;;;;;;24.50;47.62;96393.44;5134490;28;20024;-34
2022/05/25 03:47:52;;;;;;;4.55;2.80;;;;;;;24.47;47.46;96394.47;5127004;28;20459;-34
2022/05/25 03:50:18;;;;;;;5.18;2.60;;;;;;;24.45;47.53;96388.69;5112176;28;20102;-33
2022/05/25 03:52:45;;;;;;;3.85;2.63;;;;;;;24.49;47.52;96399.47;5119731;28;20031;-34
2022/05/25 03:55:10;;;;;;;4.47;2.55;;;;;;;24.50;47.54;96401.75;5132937;28;20054;-34
2022/05/25 03:57:36;;;;;;;5.90;2.75;;;;;;;24.47;47.37;96397.25;5118520;28;20071;-34
2022/05/25 04:00:06;;;;;;;4.78;2.85;;;;;;;24.48;47.40;96398.00;5111949;28;20026;-33
2022/05/25 04:02:31;;;;;;;4.90;2.75;;;;;;;24.45;47.14;96394.25;5112050;28;20479;-34
2022/05/25 04:05:09;;;;;;;3.92;2.33;;;;;;;24.43;47.27;96396.78;5112307;28;20118;-34
2022/05/25 04:07:43;;;;;;;3.05;2.22;;;;;;;24.44;46.98;96395.53;5112152;28;20023;-34
2022/05/25 04:10:13;;;;;;;5.32;2.38;;;;;;;24.43;46.63;96396.03;5111929;28;20034;-33
2022/05/25 04:12:40;;;;;;;3.83;2.60;;;;;;;24.39;46.73;96409.41;5111828;28;20028;-34
2022/05/25 04:15:06;;;;;;;4.85;2.40;;;;;;;24.43;46.31;96407.88;5111914;28;20471;-34
2022/05/25 04:17:33;;;;;;;4.97;2.38;;;;;;;24.36;46.43;96404.94;5112069;28;20034;-34
2022/05/25 04:19:59;;;;;;;6.18;2.88;;;;;;;24.44;46.35;96408.63;5111765;28;20032;-33
2022/05/25 04:22:25;;;;;;;4.90;2.80;;;;;;;24.39;46.43;96409.41;5111983;28;20387;-34
2022/05/25 04:24:51;;;;;;;3.15;2.35;;;;;;;24.39;46.27;96412.19;5112773;28;20019;-34
2022/05/25 04:27:17;;;;;;;6.18;2.47;;;;;;;24.32;46.21;96408.75;5115956;28;20498;-34
2022/05/25 04:29:43;;;;;;;5.53;2.30;;;;;;;24.31;46.19;96409.25;5115503;28;20028;-34
2022/05/25 04:32:09;;;;;;;3.63;2.42;;;;;;;24.36;45.94;96419.53;5115686;28;20380;-33
2022/05/25 04:34:34;;;;;;;5.05;2.45;;;;;;;24.44;45.86;96411.41;5115473;28;20051;-34
2022/05/25 04:37:48;;;;;;;3.53;2.33;;;;;;;24.31;45.91;96409.25;5115657;28;20073;-34
2022/05/25 04:39:45;;;;;;;6.63;2.65;;;;;;;24.29;45.96;96409.78;5115217;28;20468;-34
2022/05/25 04:42:11;;;;;;;7.50;3.40;;;;;;;24.31;45.71;96414.78;5115467;28;20034;-34
2022/05/25 04:44:37;;;;;;;15.80;3.30;;;;;;;24.23;45.79;96411.81;5115525;28;20077;-34
2022/05/25 04:47:06;;;;;;;8.38;2.92;;;;;;;24.30;45.74;96421.59;5115271;28;20031;-34
2022/05/25 04:49:31;;;;;;;8.88;2.90;;;;;;;24.30;45.49;96416.06;5115274;28;20023;-34
2022/05/25 04:51:57;;;;;;;5.57;2.70;;;;;;;24.31;45.60;96420.34;5115372;28;20032;-34
2022/05/25 04:54:23;;;;;;;8.02;3.28;;;;;;;24.29;45.49;96420.09;5115141;28;20027;-34
2022/05/25 04:59:33;;;;;;;6.05;2.90;;;;;;;24.31;45.63;96417.56;5135525;27;20174;-35
2022/05/25 05:01:59;;;;;;;7.10;3.08;;;;;;;24.25;45.75;96416.84;5135639;27;20081;-34
2022/05/25 05:04:26;;;;;;;5.68;2.53;;;;;;;24.28;45.72;96418.59;5135729;27;20019;-34
2022/05/25 05:06:52;;;;;;;5.75;2.70;;;;;;;24.30;45.74;96424.38;5135559;27;20027;-34
2022/05/25 05:09:18;;;;;;;5.07;2.60;;;;;;;24.23;45.92;96436.03;5135671;27;20026;-34
2022/05/25 05:11:44;;;;;;;4.85;2.22;;;;;;;24.24;45.62;96435.50;5135457;27;20027;-34
2022/05/25 05:14:09;;;;;;;5.38;2.63;;;;;;;24.28;45.65;96444.28;5135421;27;20023;-35
2022/05/25 05:16:35;;;;;;;4.43;2.50;;;;;;;24.27;45.76;96434.47;5135514;27;20156;-34
2022/05/25 05:19:00;;;;;;;5.50;2.38;;;;;;;24.21;45.78;96447.59;5135005;27;20035;-25
2022/05/25 05:21:26;;;;;;;6.68;2.60;;;;;;;24.23;45.77;96445.06;5134885;27;20027;-25
2022/05/25 05:23:51;;;;;;;5.60;2.63;;;;;;;24.21;46.07;96444.84;5132864;27;20027;-25
2022/05/25 05:26:17;;;;;;;4.65;2.60;;;;;;;24.22;46.08;96451.91;5134688;27;20052;-25
2022/05/25 05:28:43;;;;;;;7.15;3.03;;;;;;;24.21;46.03;96449.63;5116001;27;20489;-25
2022/05/25 05:31:09;;;;;;;6.10;2.97;;;;;;;24.24;46.14;96452.13;5134354;27;20114;-25
2022/05/25 05:33:36;;;;;;;5.05;2.88;;;;;;;24.25;45.99;96458.41;5134446;27;20498;-25
2022/05/25 05:36:18;;;;;;;7.80;2.60;;;;;;;24.21;46.54;96469.03;5133453;27;20352;-25
2022/05/25 05:38:52;;;;;;;4.85;2.75;;;;;;;24.19;46.43;96477.09;5134275;27;20102;-26
2022/05/25 05:41:21;;;;;;;7.82;2.72;;;;;;;24.25;46.17;96475.06;5128143;27;20034;-25
2022/05/25 05:43:48;;;;;;;7.65;2.42;;;;;;;24.25;46.15;96475.06;5113872;28;20019;-25
2022/05/25 05:46:14;;;;;;;6.25;2.97;;;;;;;24.23;46.15;96489.41;5113480;28;20031;-26
2022/05/25 05:48:40;;;;;;;5.72;2.60;;;;;;;24.21;46.56;96491.19;5113637;28;20020;-25
2022/05/25 05:51:06;;;;;;;5.82;2.97;;;;;;;24.28;46.48;96493.41;5113568;28;20023;-26
2022/05/25 05:53:33;;;;;;;3.95;2.53;;;;;;;24.21;46.47;96491.94;5095197;28;20023;-25
2022/05/25 05:55:58;;;;;;;8.40;3.00;;;;;;;24.24;46.29;96490.16;5113379;28;20034;-26
2022/05/25 05:58:24;;;;;;;6.80;2.80;;;;;;;24.22;46.47;96503.78;5112931;28;20019;-25
2022/05/25 06:00:50;;;;;;;6.40;3.25;;;;;;;24.27;46.22;96500.22;5113472;28;20027;-25
2022/05/25 06:03:16;;;;;;;7.63;2.60;;;;;;;24.18;46.63;96503.31;5113464;28;20066;-25
2022/05/25 06:05:44;;;;;;;6.40;2.60;;;;;;;24.23;46.37;96502.56;5113471;28;20039;-26
2022/05/25 06:08:12;;;;;;;4.88;2.78;;;;;;;24.28;46.00;96507.28;5113360;28;20034;-25
2022/05/25 06:10:39;;;;;;;8.00;2.75;;;;;;;24.26;45.86;96499.47;5112828;28;20024;-25
2022/05/25 06:13:07;;;;;;;4.65;3.00;;;;;;;24.22;45.75;96501.00;5113257;28;20027;-25
2022/05/25 06:21:02;;;;;;;7.45;3.30;;;;;;;24.22;45.12;96509.31;5113046;28;20026;-25
2022/05/25 06:23:27;;;;;;;8.10;3.38;;;;;;;24.15;45.22;96509.88;5112592;28;20398;-25
2022/05/25 06:25:53;;;;;;;8.38;3.20;;;;;;;24.18;44.78;96523.44;5111192;28;20027;-25
2022/05/25 06:28:19;;;;;;;6.47;3.20;;;;;;;24.22;44.41;96518.41;5113050;28;20035;-25
2022/05/25 06:30:44;;;;;;;6.53;2.85;;;;;;;24.12;45.01;96524.75;5112870;28;20034;-26
2022/05/25 06:33:10;;;;;;;6.00;3.30;;;;;;;24.19;44.12;96518.66;5112864;28;20550;-25
2022/05/25 06:35:37;;;;;;;6.97;3.08;;;;;;;24.19;44.17;96526.97;5112570;28;20076;-25
2022/05/25 06:38:03;;;;;;;7.82;3.17;;;;;;;24.21;44.06;96518.91;5112821;28;20080;-25
2022/05/25 06:40:29;;;;;;;5.53;3.42;;;;;;;24.13;43.95;96517.94;5112610;28;20024;-25
2022/05/25 06:42:55;;;;;;;6.10;2.97;;;;;;;24.14;44.75;96520.19;5132689;27;20561;-25
2022/05/25 06:45:21;;;;;;;5.65;2.95;;;;;;;24.12;44.18;96524.75;5133107;27;20031;-25
2022/05/25 06:47:46;;;;;;;5.05;2.80;;;;;;;24.10;43.50;96522.50;5132660;27;20459;-25
2022/05/25 06:50:13;;;;;;;5.03;2.78;;;;;;;24.03;43.39;96520.28;5133043;27;20015;-25
2022/05/25 06:52:38;;;;;;;4.55;2.60;;;;;;;24.11;43.07;96518.44;5132855;27;20038;-25
2022/05/25 06:55:05;;;;;;;4.22;2.55;;;;;;;24.19;42.82;96524.22;5132981;27;20027;-25
2022/05/25 06:57:31;;;;;;;6.28;2.97;;;;;;;24.12;42.71;96519.19;5132849;27;20058;-25
2022/05/25 06:59:56;;;;;;;5.35;2.30;;;;;;;24.10;42.61;96507.91;5132365;27;20027;-25
2022/05/25 07:02:23;;;;;;;4.25;2.22;;;;;;;24.14;42.29;96514.66;5132903;27;20126;-26
2022/05/25 07:04:49;;;;;;;5.43;2.33;;;;;;;24.12;42.16;96505.34;5132844;27;20031;-25
2022/05/25 07:07:15;;;;;;;4.47;2.22;;;;;;;24.18;41.99;96495.75;5132688;27;20151;-25
2022/05/25 07:09:40;;;;;;;4.53;2.13;;;;;;;24.19;42.39;96499.28;5132313;27;20494;-25
2022/05/25 07:12:07;;;;;;;6.18;2.33;;;;;;;24.14;42.57;96502.81;5132411;27;20106;-25
2022/05/25 07:14:33;;;;;;;4.05;2.28;;;;;;;24.13;41.57;96495.78;5134565;27;20461;-25
2022/05/25 07:17:02;;;;;;;6.35;2.40;;;;;;;24.14;41.88;96497.28;5134537;27;20111;-25
2022/05/25 07:19:28;;;;;;;3.60;2.00;;;;;;;24.17;42.42;96507.34;5134612;27;20117;-26
2022/05/25 07:21:55;;;;;;;4.47;2.05;;;;;;;24.03;42.23;96497.38;5134555;27;20051;-25
2022/05/25 07:24:20;;;;;;;4.15;1.90;;;;;;;24.11;41.60;96495.56;5134713;27;20370;-25
2022/05/25 07:26:46;;;;;;;3.83;2.00;;;;;;;24.08;41.30;96499.34;5134443;27;20019;-25
2022/05/25 07:29:12;;;;;;;3.08;2.20;;;;;;;24.08;41.26;96497.34;5134518;27;20420;-25
2022/05/25 07:31:52;;;;;;;4.00;2.28;;;;;;;24.13;41.56;96501.31;5134326;27;20443;-25
2022/05/25 07:34:25;;;;;;;5.43;1.98;;;;;;;23.98;41.15;96502.41;5134356;27;20038;-25
2022/05/25 07:37:00;;;;;;;5.10;1.58;;;;;;;24.00;40.93;96505.44;5134784;27;20038;-26
2022/05/25 07:39:40;;;;;;;3.47;1.75;;;;;;;23.95;40.32;96509.00;5134221;27;20038;-25
2022/05/25 07:42:07;;;;;;;2.67;1.90;;;;;;;23.86;40.17;96519.66;5134371;27;20031;-25
2022/05/25 07:44:39;;;;;;;7.65;2.90;;;;;;;23.76;39.65;96513.63;5134089;27;20039;-25
2022/05/25 07:47:07;;;;;;;6.65;2.00;;;;;;;24.04;39.92;96510.69;5134427;27;20094;-25
2022/05/25 07:49:32;;;;;;;4.38;2.10;;;;;;;24.05;40.30;96505.91;5134212;27;20012;-25
2022/05/25 07:51:58;;;;;;;9.65;2.67;;;;;;;23.83;40.10;96517.91;5134277;27;20030;-25
2022/05/25 07:54:24;;;;;;;6.07;2.47;;;;;;;23.97;40.02;96517.56;5134199;27;20042;-25
2022/05/25 07:56:50;;;;;;;5.75;2.45;;;;;;;23.74;38.33;96521.69;5133920;27;20050;-25
2022/05/25 07:59:16;;;;;;;5.88;2.50;;;;;;;23.87;39.32;96516.34;5135385;27;20045;-25
2022/05/25 08:07:26;;;;;;;4.43;1.90;;;;;;;23.60;34.55;96547.72;5138161;27;20034;-25
2022/05/25 08:09:55;;;;;;;4.75;1.75;;;;;;;23.46;34.45;96529.38;5138415;27;20026;-25
2022/05/25 08:12:22;;;;;;;8.23;2.03;;;;;;;23.48;36.73;96535.16;5138234;27;20027;-25
2022/05/25 08:14:47;;;;;;;6.00;2.20;;;;;;;23.68;35.65;96528.53;5138038;27;20429;-25
2022/05/25 08:17:13;;;;;;;3.45;1.88;;;;;;;23.58;34.06;96547.47;5138086;27;20023;-25
2022/05/25 08:19:39;;;;;;;6.50;2.03;;;;;;;23.31;33.75;96535.22;5137792;27;20034;-25
2022/05/25 08:22:06;;;;;;;5.47;2.10;;;;;;;23.41;33.73;96536.44;5137881;27;20582;-25
2022/05/25 08:24:32;;;;;;;16.20;2.13;;;;;;;23.41;33.64;96532.91;5137877;27;20027;-25
2022/05/25 08:26:58;;;;;;;6.32;1.95;;;;;;;23.60;34.36;96536.66;5137782;27;20023;-26
2022/05/25 08:29:26;;;;;;;4.65;2.00;;;;;;;23.64;33.46;96518.50;5137934;27;20021;-25
2022/05/25 08:31:55;;;;;;;5.18;1.67;;;;;;;23.60;32.84;96536.66;5138140;27;20019;-26
2022/05/25 08:34:22;;;;;;;7.32;1.77;;;;;;;23.09;32.23;96533.28;5137868;27;20066;-26
2022/05/25 08:36:48;;;;;;;6.20;1.70;;;;;;;23.00;30.29;96544.59;5137571;27;20422;-27
2022/05/25 08:39:14;;;;;;;7.47;1.77;;;;;;;22.91;30.87;96536.56;5137652;27;20159;-29
2022/05/25 08:41:42;;;;;;;7.25;1.65;;;;;;;23.17;31.90;96541.81;5137474;27;20027;-29
2022/05/25 08:44:10;;;;;;;4.82;1.80;;;;;;;23.49;31.85;96547.75;5137398;27;20077;-29
2022/05/25 08:46:35;;;;;;;9.15;2.08;;;;;;;23.38;31.69;96556.81;5137355;27;20023;-29
2022/05/25 08:49:03;;;;;;;9.93;2.17;;;;;;;23.51;31.88;96548.00;5137588;27;20023;-29
2022/05/25 08:51:31;;;;;;;5.93;2.00;;;;;;;23.52;32.03;96550.25;5137518;27;20023;-29
2022/05/25 08:53:58;;;;;;;7.65;2.05;;;;;;;23.56;32.50;96552.75;5118820;27;20382;-29
2022/05/25 08:56:35;;;;;;;7.78;2.08;;;;;;;23.55;32.91;96537.41;5137076;27;20039;-28
2022/05/25 08:59:21;;;;;;;4.25;2.08;;;;;;;23.71;33.28;96553.19;5137266;27;20447;-29
2022/05/25 09:01:57;;;;;;;5.25;1.85;;;;;;;23.72;32.66;96549.19;5137096;27;20109;-29
2022/05/25 09:04:38;;;;;;;8.05;1.67;;;;;;;23.79;33.27;96542.34;5137170;27;20018;-29
2022/05/25 09:07:29;;;;;;;7.22;1.90;;;;;;;23.89;33.80;96538.75;5137064;27;20145;-29
2022/05/25 09:09:55;;;;;;;6.40;1.73;;;;;;;23.70;33.71;96543.38;5136509;27;20023;-29
2022/05/25 09:12:42;;;;;;;8.27;1.80;;;;;;;23.58;33.41;96548.22;5123631;27;20542;-29
2022/05/25 09:15:15;;;;;;;4.93;1.77;;;;;;;23.76;34.61;96541.34;5115506;28;20027;-29
2022/05/25 09:17:47;;;;;;;5.78;2.10;;;;;;;23.71;34.16;96555.97;5116510;28;20065;-29
2022/05/25 09:20:16;;;;;;;4.18;1.83;;;;;;;23.72;33.83;96551.19;5116253;28;20383;-28
2022/05/25 09:22:42;;;;;;;5.57;1.75;;;;;;;23.68;34.19;96537.59;5116323;28;20023;-28
2022/05/25 09:25:12;;;;;;;3.90;1.70;;;;;;;23.77;34.29;96548.38;5116137;28;20035;-29
2022/05/25 09:28:07;;;;;;;4.28;1.92;;;;;;;23.65;34.78;96555.22;5116286;28;20060;-29
2022/05/25 09:30:36;;;;;;;4.55;1.60;;;;;;;23.64;34.59;96573.09;5116147;28;20064;-28
2022/05/25 09:33:30;;;;;;;3.80;1.80;;;;;;;23.85;33.94;96552.13;5116050;28;20099;-28
2022/05/25 09:35:59;;;;;;;11.52;2.05;;;;;;;23.95;34.19;96552.56;5097700;28;20023;-28
2022/05/25 09:38:42;;;;;;;3.17;1.75;;;;;;;23.97;33.77;96544.50;5115671;28;20024;-29
2022/05/25 09:41:12;;;;;;;7.20;1.88;;;;;;;23.95;33.86;96569.94;5116097;28;20020;-29
2022/05/25 09:43:39;;;;;;;6.20;2.28;;;;;;;23.81;34.15;96573.03;5114758;28;20487;-28
2022/05/25 09:46:14;;;;;;;5.80;1.83;;;;;;;23.74;34.22;96565.28;5115237;28;20027;-30
2022/05/25 09:48:58;;;;;;;4.50;1.73;;;;;;;23.76;34.52;96577.31;5115752;28;20051;-28
2022/05/25 09:51:46;;;;;;;6.85;2.08;;;;;;;23.71;34.51;96567.06;5115581;28;20046;-29
2022/05/25 09:54:26;;;;;;;4.20;1.73;;;;;;;23.76;34.67;96580.09;5115559;28;20110;-28
2022/05/25 09:56:58;;;;;;;4.75;1.73;;;;;;;23.95;34.63;96581.03;5115308;28;20039;-28
2022/05/25 09:59:34;;;;;;;5.20;2.30;;;;;;;24.00;34.10;96580.22;5115434;28;20023;-28
2022/05/25 10:02:00;;;;;;;6.18;1.83;;;;;;;23.96;34.19;96573.47;5115538;28;20059;-28
2022/05/25 10:04:55;;;;;;;6.72;2.40;;;;;;;23.77;34.40;96576.06;5115644;28;20031;-29
2022/05/25 10:07:34;;;;;;;5.35;1.70;;;;;;;23.79;34.46;96570.03;5115310;28;20023;-29
2022/05/25 10:10:11;;;;;;;3.88;1.95;;;;;;;23.98;34.35;96582.75;5115544;28;20358;-28
2022/05/25 10:12:42;;;;;;;4.35;1.85;;;;;;;23.90;34.15;96590.09;5115247;28;20114;-29
2022/05/25 10:15:14;;;;;;;3.92;1.90;;;;;;;23.93;34.49;96593.88;5115158;28;20379;-28
2022/05/25 10:17:46;;;;;;;3.20;1.80;;;;;;;23.83;34.11;96589.91;5118430;27;20348;-29
2022/05/25 10:20:22;;;;;;;3.38;1.67;;;;;;;24.04;34.42;96604.16;5132571;27;20463;-28
2022/05/25 10:22:51;;;;;;;5.20;1.80;;;;;;;23.94;34.79;96598.91;5125578;27;20470;-28
2022/05/25 10:25:41;;;;;;;4.35;1.90;;;;;;;23.72;34.32;96585.16;5111478;28;20032;-29
2022/05/25 10:28:31;;;;;;;5.97;1.90;;;;;;;23.85;34.45;96585.38;5112795;28;20038;-29
2022/05/25 10:37:01;;;;;;;6.65;2.10;;;;;;;23.96;35.30;96588.06;5113030;28;20093;-29
2022/05/25 10:39:29;;;;;;;8.77;2.10;;;;;;;24.08;34.54;96591.53;5112681;28;20390;-28
2022/05/25 10:42:17;;;;;;;3.53;1.90;;;;;;;24.12;34.15;96582.94;5112558;28;20034;-28
2022/05/25 10:45:00;;;;;;;4.47;2.00;;;;;;;24.05;35.14;96594.56;5112638;28;20048;-30
2022/05/25 10:47:54;;;;;;;4.70;1.73;;;;;;;24.02;34.30;96617.75;5112712;28;20540;-28
2022/05/25 10:50:48;;;;;;;6.20;1.73;;;;;;;23.83;34.35;96601.72;5112483;28;20069;-28
2022/05/25 10:53:38;;;;;;;5.18;1.55;;;;;;;23.89;34.80;96588.59;5104857;28;20115;-31
2022/05/25 10:56:12;;;;;;;5.68;1.90;;;;;;;24.02;34.60;96578.97;5112271;28;20018;-28
2022/05/25 10:58:51;;;;;;;7.55;2.33;;;;;;;24.03;34.94;96589.53;5112237;28;20023;-29
2022/05/25 11:01:44;;;;;;;4.82;2.22;;;;;;;23.87;34.44;96588.34;5112442;28;20102;-28
2022/05/25 11:04:52;;;;;;;4.13;2.20;;;;;;;23.97;35.17;96578.50;5112296;28;20050;-28
2022/05/25 11:07:41;;;;;;;4.78;1.98;;;;;;;24.14;34.61;96595.00;5112289;28;20027;-29
2022/05/25 11:10:26;;;;;;;5.82;2.15;;;;;;;24.09;34.76;96600.59;5104136;28;20036;-29
2022/05/25 11:12:51;;;;;;;3.83;1.88;;;;;;;23.95;34.40;96592.09;5112431;27;20445;-28
2022/05/25 11:15:44;;;;;;;8.05;2.10;;;;;;;24.04;34.65;96590.28;5114187;27;20106;-29
2022/05/25 11:18:29;;;;;;;;;;;;;;;23.97;34.84;96581.28;5114519;27;20059;-29
2022/05/25 11:20:56;;;;;;;5.00;1.63;;;;;;;23.99;34.80;96598.09;5132511;27;19916;-29
2022/05/25 11:23:37;;;;;;;8.75;2.47;;;;;;;23.96;34.92;96593.63;5132501;27;20026;-28
2022/05/25 11:26:28;;;;;;;6.90;2.00;;;;;;;24.13;34.46;96578.91;5130709;27;20031;-28
2022/05/25 11:29:31;;;;;;;8.85;1.92;;;;;;;24.14;34.06;96585.94;5132193;27;20104;-28
2022/05/25 11:32:21;;;;;;;5.00;2.00;;;;;;;24.09;34.62;96590.28;5132020;27;20035;-28
2022/05/25 11:34:55;;;;;;;6.63;1.70;;;;;;;23.94;34.90;96598.16;5131840;27;20019;-31
2022/05/25 11:37:43;;;;;;;7.63;2.13;;;;;;;24.13;34.86;96587.22;5132436;28;20034;-28
2022/05/25 11:40:17;;;;;;;3.88;1.65;;;;;;;24.11;34.92;96609.88;5132093;28;20448;-28
2022/05/25 11:42:45;;;;;;;5.32;2.25;;;;;;;24.09;34.90;96617.22;5132381;28;20031;-28
2022/05/25 11:45:17;;;;;;;6.68;1.70;;;;;;;24.10;34.31;96624.28;5132338;28;20379;-28
2022/05/25 11:47:42;;;;;;;5.63;1.80;;;;;;;24.00;34.54;96616.25;5132208;28;20030;-28
2022/05/25 11:50:46;;;;;;;5.60;2.17;;;;;;;24.13;34.40;96634.31;5132196;28;20378;-28
2022/05/25 11:53:49;;;;;;;5.80;1.80;;;;;;;24.20;34.44;96647.63;5132054;28;20027;-29
2022/05/25 11:56:36;;;;;;;4.03;1.90;;;;;;;24.24;34.17;96656.44;5129613;28;20080;-29
2022/05/25 11:59:07;;;;;;;7.57;1.65;;;;;;;24.18;34.35;96647.41;5111828;28;20110;-29
2022/05/25 12:01:49;;;;;;;6.82;1.83;;;;;;;24.20;34.44;96647.63;5111644;28;20047;-29
2022/05/25 12:04:43;;;;;;;3.88;1.70;;;;;;;24.20;34.25;96667.03;5111471;28;20028;-30
2022/05/25 12:07:20;;;;;;;6.25;1.73;;;;;;;24.23;33.87;96682.69;5111610;28;20032;-29
2022/05/25 12:10:16;;;;;;;4.18;1.85;;;;;;;24.13;34.18;96662.03;5111631;28;20030;-30
2022/05/25 12:12:50;;;;;;;4.03;1.77;;;;;;;24.17;33.79;96684.69;5111588;28;20034;-28
2022/05/25 12:15:25;;;;;;;7.68;1.92;;;;;;;24.18;33.69;96664.78;5110134;28;20475;-28
2022/05/25 12:17:57;;;;;;;8.13;1.60;;;;;;;24.21;33.29;96666.53;5111275;28;20035;-28
2022/05/25 12:20:46;;;;;;;4.53;1.98;;;;;;;24.23;33.21;96661.25;5111499;28;20023;-28
2022/05/25 12:23:15;;;;;;;5.10;1.80;;;;;;;24.24;33.64;96650.91;5111645;28;20023;-29
2022/05/25 12:26:05;;;;;;;4.82;2.03;;;;;;;24.29;32.97;96664.00;5109664;28;20479;-28
2022/05/25 12:28:37;;;;;;;2.42;1.55;;;;;;;24.29;32.73;96650.13;5111122;28;20036;-28
2022/05/25 12:31:08;;;;;;;5.07;1.73;;;;;;;24.35;32.51;96650.88;5111294;28;20023;-29
2022/05/25 12:33:35;;;;;;;4.88;1.70;;;;;;;24.37;33.15;96653.84;5109278;28;20035;-29